Aérodrome :
LOGIN :

S'inscrire | Disclaimer

   EN    FR    IT 

 










Légende :    VFR   VFR Marginal   IFR   IFR Intensif   IFR Très Intensif
Visi : 
Plafond : 
>= 8 km
>= 3000ft
5 à 8 km
1000 à 3000 ft
1500m à 5 km
500 à 1000 ft
800 à 1500m
200 à 500 ft
< 800m
< 200 ft
Symboles :   Orages  Brouillard  Fortes neiges  Fortes précipitations  Vent > 20 kt
SIGMETs :   Divers  Orages  Givrage  Turbulence  Onde Orograph.  Cendres Volcan.







- Altitude de l'aérodrome : 1906 ft
- Code IATA : INN


LOWI - Innsbruck

DERNIER METAR :
  • 260450Z 30003KT 240V330 CAVOK M02/M06 Q1019 NOSIG

METARs EXPIRÉS :
  • 260420Z AUTO 26004KT 210V290 9999 NCD M02/M05 Q1019
  • 260350Z AUTO 26006KT 9999 NCD M02/M05 Q1019
  • 260320Z AUTO 24004KT 200V270 9999 NCD M02/M05 Q1019
  • 260250Z AUTO 30003KT 240V320 9999 NCD M02/M05 Q1019
  • 260220Z AUTO VRB01KT 9999 NCD M02/M05 Q1020

TAF TAF LOWI
Valide du 26 à 00h jusqu'au 27 à 00h UTC


252315Z 2600/2624 27005KT CAVOK TX12/2614Z TNM02/2605Z
TEMPO 2612/2617 09006KT
Pas de NOTAMs connus pour ce terrain.



MET'MAP, la Météo Aéronautique d'un coup d'oeil ! - Copyright ORBIFLY Décembre 2007 - Disclaimer

ORBIFLY MET'MAP TEAM :

Programmation & Développement : Alexandra Zaïnal
Conception & Développement : Baudouin d'Aumeries
Co-Programmation & Développement : Marc-Olivier Méhu
Soutien technique & logistique : Manuel Goepfert

Contact : metmap@orbifly.com




SOURCES & CREDITS :

   NOAA